Time;durP1;ratioP1;P1;durP2;ratioP2;P2;SDS_P1;SDS_P2;PMS_P1;PMS_P2;Temp;Humidity;BMP_temperature;BMP_pressure;BME280_temperature;BME280_humidity;BME280_pressure;Samples;Min_cycle;Max_cycle;Signal;HPM_P1;HPM_P2
2021/07/18 00:00:00;;;;;;;12.70;4.17;;;19.30;99.90;;;;;;1857779;76;21694;-69
2021/07/18 00:02:28;;;;;;;11.48;3.58;;;19.30;99.90;;;;;;1857347;75;21134;-70
2021/07/18 00:04:55;;;;;;;12.90;4.05;;;19.30;99.90;;;;;;1859480;76;21113;-70
2021/07/18 00:07:23;;;;;;;16.97;4.72;;;19.40;99.90;;;;;;1861109;76;21124;-69
2021/07/18 00:09:51;;;;;;;19.15;4.53;;;19.30;99.90;;;;;;1858705;76;21071;-69
2021/07/18 00:12:18;;;;;;;13.20;4.05;;;19.30;99.90;;;;;;1857781;76;21433;-69
2021/07/18 00:14:46;;;;;;;15.32;4.47;;;19.30;99.90;;;;;;1858946;77;21076;-69
2021/07/18 00:17:14;;;;;;;12.88;4.53;;;19.30;99.90;;;;;;1856700;75;21036;-77
2021/07/18 00:19:41;;;;;;;18.80;4.28;;;19.30;99.90;;;;;;1859054;75;21147;-69
2021/07/18 00:22:09;;;;;;;13.03;4.03;;;19.30;99.90;;;;;;1856459;76;21695;-70
2021/07/18 00:24:37;;;;;;;12.90;4.53;;;19.30;99.90;;;;;;1867684;75;21783;-70
2021/07/18 00:27:05;;;;;;;12.18;3.98;;;19.20;99.90;;;;;;1857735;76;21579;-69
2021/07/18 00:29:32;;;;;;;12.90;3.85;;;19.20;99.90;;;;;;1858587;77;21151;-69
2021/07/18 00:32:00;;;;;;;20.05;4.20;;;19.20;99.90;;;;;;1857117;76;21091;-69
2021/07/18 00:34:27;;;;;;;12.70;4.20;;;19.20;99.90;;;;;;1873439;76;21133;-68
2021/07/18 00:36:55;;;;;;;14.00;4.60;;;19.20;99.90;;;;;;1860857;76;21128;-70
2021/07/18 00:39:23;;;;;;;15.15;4.40;;;19.10;99.90;;;;;;1861221;76;21415;-70
2021/07/18 00:41:51;;;;;;;13.83;3.90;;;19.10;99.90;;;;;;1862481;76;21122;-69
2021/07/18 00:44:18;;;;;;;9.48;3.65;;;19.10;99.90;;;;;;1856586;76;21179;-70
2021/07/18 00:46:46;;;;;;;9.83;3.60;;;19.10;99.90;;;;;;1858211;76;21595;-69
2021/07/18 00:49:14;;;;;;;17.15;3.60;;;19.10;99.90;;;;;;1857587;76;21190;-70
2021/07/18 00:51:42;;;;;;;13.80;4.03;;;19.10;99.90;;;;;;1857336;76;21158;-69
2021/07/18 00:54:10;;;;;;;12.82;3.70;;;19.10;99.90;;;;;;1854947;76;21423;-70
2021/07/18 00:56:38;;;;;;;11.05;4.35;;;19.10;99.90;;;;;;1857828;76;21239;-69
2021/07/18 00:59:10;;;;;;;16.50;4.20;;;19.00;99.90;;;;;;1853171;76;21103;-70
2021/07/18 01:01:37;;;;;;;13.75;4.00;;;19.00;99.90;;;;;;1855026;76;21180;-70
2021/07/18 01:04:05;;;;;;;13.13;3.70;;;19.10;99.90;;;;;;1858164;77;21066;-70
2021/07/18 01:06:34;;;;;;;11.33;3.65;;;19.00;99.90;;;;;;1857188;77;21656;-70
2021/07/18 01:09:04;;;;;;;18.17;3.92;;;19.10;99.90;;;;;;1856356;76;21578;-71
2021/07/18 01:11:31;;;;;;;14.28;3.72;;;19.00;99.90;;;;;;1857814;77;22091;-72
2021/07/18 01:13:59;;;;;;;11.03;3.80;;;19.00;99.90;;;;;;1863071;76;21590;-70
2021/07/18 01:16:27;;;;;;;13.35;3.83;;;19.00;99.90;;;;;;1857943;76;21657;-69
2021/07/18 01:18:54;;;;;;;14.87;3.90;;;19.00;99.90;;;;;;1857568;76;21183;-70
2021/07/18 01:21:28;;;;;;;13.53;3.52;;;18.90;99.90;;;;;;1853591;76;21415;-70
2021/07/18 01:23:55;;;;;;;12.10;3.72;;;18.80;99.90;;;;;;1857036;77;21589;-70
2021/07/18 01:26:23;;;;;;;13.22;4.15;;;18.90;99.90;;;;;;1857652;76;21070;-71
2021/07/18 01:28:51;;;;;;;14.40;4.47;;;18.80;99.90;;;;;;1857624;76;21205;-71
2021/07/18 01:31:19;;;;;;;12.90;3.33;;;18.60;99.90;;;;;;1893462;75;21132;-70
2021/07/18 01:33:46;;;;;;;14.73;3.98;;;18.70;99.90;;;;;;1884339;75;21113;-70
2021/07/18 01:36:14;;;;;;;13.25;3.72;;;18.70;99.90;;;;;;1857782;76;21063;-71
2021/07/18 01:38:41;;;;;;;13.93;3.60;;;18.70;99.90;;;;;;1857348;76;21171;-70
2021/07/18 01:41:09;;;;;;;11.97;3.70;;;18.60;99.90;;;;;;1826969;78;21132;-71
2021/07/18 01:43:36;;;;;;;12.75;3.77;;;18.50;99.90;;;;;;1810271;79;21634;-71
2021/07/18 01:46:04;;;;;;;11.70;3.65;;;18.50;99.90;;;;;;1785216;78;21698;-71
2021/07/18 01:48:31;;;;;;;16.15;3.67;;;18.40;99.90;;;;;;1813224;78;21266;-71
2021/07/18 01:50:59;;;;;;;12.18;3.90;;;18.50;99.90;;;;;;1784562;79;21582;-71
2021/07/18 01:53:26;;;;;;;9.73;3.62;;;18.50;99.90;;;;;;1783133;80;21123;-70
2021/07/18 01:55:55;;;;;;;16.23;3.58;;;18.40;99.90;;;;;;1849221;77;21116;-71
2021/07/18 01:58:29;;;;;;;7.65;3.33;;;18.40;99.90;;;;;;1824077;77;21606;-72
2021/07/18 02:00:58;;;;;;;14.13;3.50;;;18.40;99.90;;;;;;1766182;80;21101;-70
2021/07/18 02:03:25;;;;;;;9.95;3.40;;;18.30;99.90;;;;;;1788620;79;21195;-70
2021/07/18 02:05:53;;;;;;;14.25;3.65;;;18.30;99.90;;;;;;1825928;77;21171;-70
2021/07/18 02:08:20;;;;;;;14.35;3.92;;;18.20;99.90;;;;;;1857324;77;21110;-70
2021/07/18 02:10:48;;;;;;;18.12;3.10;;;18.20;99.90;;;;;;1859849;76;21116;-70
2021/07/18 02:13:17;;;;;;;13.43;4.05;;;18.20;99.90;;;;;;1858144;77;21022;-70
2021/07/18 02:15:45;;;;;;;7.62;3.00;;;18.30;99.90;;;;;;1856816;76;21206;-70
2021/07/18 02:18:12;;;;;;;12.50;3.58;;;18.20;99.90;;;;;;1857864;76;21654;-69
2021/07/18 02:20:41;;;;;;;11.03;3.40;;;18.20;99.90;;;;;;1859973;76;21653;-70
2021/07/18 02:23:08;;;;;;;10.43;3.60;;;18.20;99.90;;;;;;1861005;76;21077;-71
2021/07/18 02:25:36;;;;;;;11.15;4.05;;;18.20;99.90;;;;;;1857764;76;21249;-71
2021/07/18 02:28:04;;;;;;;11.97;3.42;;;18.20;99.90;;;;;;1857257;77;21191;-69
2021/07/18 02:30:31;;;;;;;11.73;3.33;;;18.20;99.90;;;;;;1856995;76;21122;-70
2021/07/18 02:32:59;;;;;;;11.83;3.33;;;18.30;99.90;;;;;;1857790;77;21168;-70
2021/07/18 02:35:27;;;;;;;10.38;2.90;;;18.30;99.90;;;;;;1857462;76;21495;-70
2021/07/18 02:37:54;;;;;;;10.53;3.50;;;18.30;99.90;;;;;;1881118;76;21045;-70
2021/07/18 02:40:23;;;;;;;13.03;3.35;;;18.20;99.90;;;;;;1873179;76;21065;-69
2021/07/18 02:42:51;;;;;;;9.08;3.27;;;18.20;99.90;;;;;;1857649;77;21422;-70
2021/07/18 02:45:23;;;;;;;9.10;3.35;;;18.20;99.90;;;;;;1857414;76;21615;-71
2021/07/18 02:47:52;;;;;;;14.13;2.98;;;18.10;99.90;;;;;;1858451;77;21090;-69
2021/07/18 02:50:22;;;;;;;11.00;3.77;;;18.00;99.90;;;;;;1858810;76;21618;-70
2021/07/18 02:52:49;;;;;;;11.80;3.33;;;18.10;99.90;;;;;;1858741;76;21136;-70
2021/07/18 02:55:17;;;;;;;9.13;3.17;;;18.00;99.90;;;;;;1853072;76;22211;-72
2021/07/18 02:57:45;;;;;;;9.48;3.72;;;18.00;99.90;;;;;;1857078;77;21182;-71
2021/07/18 03:00:15;;;;;;;8.60;3.87;;;18.00;99.90;;;;;;1857200;76;21089;-70
2021/07/18 03:02:44;;;;;;;10.50;3.90;;;18.10;99.90;;;;;;1822369;77;21632;-69
2021/07/18 03:05:13;;;;;;;14.15;4.08;;;18.10;99.90;;;;;;1858005;76;21203;-70
2021/07/18 03:07:41;;;;;;;9.30;3.70;;;18.00;99.90;;;;;;1857634;77;21140;-70
2021/07/18 03:10:10;;;;;;;9.78;3.62;;;18.00;99.90;;;;;;1865637;76;22128;-71
2021/07/18 03:12:38;;;;;;;13.43;4.20;;;17.90;99.90;;;;;;1857506;77;21177;-70
2021/07/18 03:15:11;;;;;;;10.70;3.58;;;17.90;99.90;;;;;;1858070;76;21595;-70
2021/07/18 03:17:40;;;;;;;11.80;3.75;;;18.00;99.90;;;;;;1858749;77;21049;-69
2021/07/18 03:20:09;;;;;;;11.97;3.87;;;18.10;99.90;;;;;;1858741;76;21030;-69
2021/07/18 03:22:37;;;;;;;12.80;4.10;;;18.00;99.90;;;;;;1828057;78;21752;-69
2021/07/18 03:25:06;;;;;;;11.95;3.80;;;18.00;99.90;;;;;;1844131;75;21018;-68
2021/07/18 03:27:34;;;;;;;15.53;4.10;;;18.00;99.90;;;;;;1870153;76;21079;-69
2021/07/18 03:30:03;;;;;;;12.33;3.87;;;17.90;99.90;;;;;;1857891;76;21086;-69
2021/07/18 03:32:30;;;;;;;11.85;4.00;;;18.00;99.90;;;;;;1857508;77;21144;-69
2021/07/18 03:34:58;;;;;;;12.10;3.50;;;18.00;99.90;;;;;;1857333;76;21198;-70
2021/07/18 03:37:26;;;;;;;8.75;3.67;;;18.10;99.90;;;;;;1856757;77;21101;-69
2021/07/18 03:39:53;;;;;;;11.35;3.58;;;18.00;99.90;;;;;;1857054;76;21082;-70
2021/07/18 03:42:21;;;;;;;12.05;4.00;;;18.00;99.90;;;;;;1864147;76;21102;-68
2021/07/18 03:44:48;;;;;;;16.67;4.53;;;18.00;99.90;;;;;;1879624;76;21098;-68
2021/07/18 03:47:16;;;;;;;13.70;4.03;;;18.00;99.90;;;;;;1857646;76;21570;-69
2021/07/18 03:49:44;;;;;;;15.08;4.70;;;18.00;99.90;;;;;;1857824;76;21196;-69
2021/07/18 03:52:11;;;;;;;17.95;4.47;;;18.00;99.90;;;;;;1854078;76;21201;-70
2021/07/18 03:54:39;;;;;;;12.58;4.00;;;18.00;99.90;;;;;;1854643;76;21104;-69
2021/07/18 03:57:06;;;;;;;13.45;4.30;;;18.10;99.90;;;;;;1880412;75;21175;-69
2021/07/18 03:59:34;;;;;;;14.87;4.00;;;18.00;99.90;;;;;;1871279;76;21104;-70
2021/07/18 04:02:01;;;;;;;13.60;4.42;;;18.00;99.90;;;;;;1858162;76;21156;-71
2021/07/18 04:04:29;;;;;;;13.83;4.28;;;18.00;99.90;;;;;;1853091;77;21136;-70
2021/07/18 04:06:56;;;;;;;12.50;4.25;;;18.10;99.90;;;;;;1857806;77;21094;-69
2021/07/18 04:09:24;;;;;;;15.50;4.65;;;18.10;99.90;;;;;;1857740;76;21353;-70
2021/07/18 04:11:51;;;;;;;16.23;4.50;;;18.10;99.90;;;;;;1857707;76;21524;-69
2021/07/18 04:14:19;;;;;;;14.65;4.25;;;18.10;99.90;;;;;;1865792;76;21023;-69
2021/07/18 04:16:46;;;;;;;11.95;4.75;;;18.00;99.90;;;;;;1857965;77;21073;-70
2021/07/18 04:19:14;;;;;;;12.58;4.62;;;18.00;99.90;;;;;;1857563;76;22068;-72
2021/07/18 04:21:41;;;;;;;13.53;4.35;;;18.00;99.90;;;;;;1857881;77;21093;-70
2021/07/18 04:24:09;;;;;;;17.15;5.12;;;18.10;99.90;;;;;;1858278;76;21097;-70
2021/07/18 04:26:36;;;;;;;15.95;4.92;;;18.00;99.90;;;;;;1857949;77;21097;-71
2021/07/18 04:29:04;;;;;;;13.20;4.80;;;18.10;99.90;;;;;;1858012;76;21058;-70
2021/07/18 04:31:32;;;;;;;13.05;4.42;;;18.20;99.90;;;;;;1869980;76;21636;-70
2021/07/18 04:33:59;;;;;;;17.42;5.20;;;18.10;99.90;;;;;;1858142;76;21089;-70
2021/07/18 04:36:27;;;;;;;14.87;5.45;;;18.20;99.90;;;;;;1851555;77;21623;-70
2021/07/18 04:39:14;;;;;;;11.35;4.60;;;18.20;99.90;;;;;;1849083;77;21079;-70
2021/07/18 04:41:41;;;;;;;14.53;5.17;;;18.20;99.90;;;;;;1886635;76;21146;-70
2021/07/18 04:44:09;;;;;;;14.45;5.22;;;18.20;99.90;;;;;;1894053;76;21164;-70
2021/07/18 04:46:36;;;;;;;13.30;5.92;;;18.20;99.90;;;;;;1872220;75;22255;-73
2021/07/18 04:49:04;;;;;;;15.90;5.33;;;18.30;99.90;;;;;;1867392;74;21524;-71
2021/07/18 04:51:32;;;;;;;17.07;5.33;;;18.40;99.90;;;;;;1867937;74;21148;-69
2021/07/18 04:53:59;;;;;;;12.10;4.87;;;18.40;99.90;;;;;;1869157;75;21067;-70
2021/07/18 04:56:27;;;;;;;13.80;4.80;;;18.30;99.90;;;;;;1880680;75;21564;-71
2021/07/18 04:58:54;;;;;;;22.42;4.72;;;18.40;99.90;;;;;;1886834;75;21091;-71
2021/07/18 05:01:22;;;;;;;13.15;4.37;;;18.50;99.90;;;;;;1886874;75;21127;-70
2021/07/18 05:03:49;;;;;;;12.53;4.67;;;18.50;99.90;;;;;;1887856;75;21098;-70
2021/07/18 05:06:17;;;;;;;14.03;4.75;;;18.60;99.90;;;;;;1894393;75;21187;-69
2021/07/18 05:08:44;;;;;;;17.00;5.35;;;18.70;99.90;;;;;;1881077;75;21087;-70
2021/07/18 05:11:12;;;;;;;13.60;4.40;;;18.60;99.90;;;;;;1880026;76;21114;-70
2021/07/18 05:13:39;;;;;;;15.68;4.92;;;18.70;99.90;;;;;;1893324;75;21345;-70
2021/07/18 05:16:07;;;;;;;16.00;4.87;;;18.80;99.90;;;;;;1894660;75;21536;-69
2021/07/18 05:18:34;;;;;;;11.65;4.22;;;18.80;99.90;;;;;;1894450;76;21640;-70
2021/07/18 05:21:02;;;;;;;10.63;3.47;;;18.80;99.90;;;;;;1889934;75;21220;-69
2021/07/18 05:23:29;;;;;;;11.45;4.03;;;18.80;99.90;;;;;;1883536;75;21165;-69
2021/07/18 05:25:57;;;;;;;12.25;3.72;;;18.90;99.90;;;;;;1894409;76;21641;-69
2021/07/18 05:28:24;;;;;;;12.98;3.83;;;18.90;99.90;;;;;;1894558;75;21106;-70
2021/07/18 05:30:52;;;;;;;13.35;4.15;;;19.00;99.90;;;;;;1894806;74;21161;-71
2021/07/18 05:33:19;;;;;;;10.95;3.90;;;19.00;99.90;;;;;;1893865;75;21096;-69
2021/07/18 05:35:47;;;;;;;12.60;3.90;;;19.00;99.90;;;;;;1895683;74;21092;-69
2021/07/18 05:38:14;;;;;;;10.50;3.25;;;19.00;99.90;;;;;;1883993;74;21096;-70
2021/07/18 05:40:42;;;;;;;11.50;3.72;;;19.00;99.90;;;;;;1894664;75;21040;-67
2021/07/18 05:43:09;;;;;;;14.00;3.77;;;19.10;99.90;;;;;;1881823;75;21075;-68
2021/07/18 05:45:37;;;;;;;11.12;3.77;;;19.10;99.90;;;;;;1885739;75;21079;-69
2021/07/18 05:48:05;;;;;;;8.43;3.22;;;19.10;99.90;;;;;;1913211;74;21058;-67
2021/07/18 05:50:33;;;;;;;10.18;3.33;;;19.20;99.90;;;;;;1917597;74;22158;-71
2021/07/18 05:53:01;;;;;;;11.78;3.22;;;19.20;99.90;;;;;;1864401;76;21050;-69
2021/07/18 05:55:28;;;;;;;14.47;3.65;;;19.20;99.90;;;;;;1882767;75;21063;-69
2021/07/18 05:57:56;;;;;;;12.43;3.37;;;19.20;99.90;;;;;;1893145;75;21161;-69
2021/07/18 06:00:24;;;;;;;17.30;3.45;;;19.30;99.90;;;;;;1894508;76;21196;-68
2021/07/18 06:02:51;;;;;;;11.18;3.08;;;19.30;99.90;;;;;;1897300;74;21740;-70
2021/07/18 06:05:19;;;;;;;14.63;3.45;;;19.30;99.90;;;;;;1894599;76;21066;-68
2021/07/18 06:07:46;;;;;;;10.82;3.35;;;19.40;99.90;;;;;;1894649;75;21200;-68
2021/07/18 06:10:14;;;;;;;11.73;3.30;;;19.50;99.90;;;;;;1893572;76;21118;-68
2021/07/18 06:12:42;;;;;;;11.12;3.40;;;19.50;99.90;;;;;;1886093;75;21109;-69
2021/07/18 06:15:10;;;;;;;10.08;3.22;;;19.50;99.90;;;;;;1894073;76;21078;-68
2021/07/18 06:17:37;;;;;;;10.82;3.85;;;19.50;99.90;;;;;;1876066;75;21191;-68
2021/07/18 06:20:09;;;;;;;9.70;3.35;;;19.60;99.90;;;;;;1862496;77;21555;-69
2021/07/18 06:22:37;;;;;;;17.35;3.67;;;19.60;99.90;;;;;;1882529;75;21098;-68
2021/07/18 06:25:06;;;;;;;13.18;3.40;;;19.60;99.90;;;;;;1895245;75;21604;-70
2021/07/18 06:27:35;;;;;;;14.53;4.03;;;19.60;99.90;;;;;;1893596;75;21116;-68
2021/07/18 06:30:03;;;;;;;12.23;3.98;;;19.70;99.90;;;;;;1895247;76;21046;-68
2021/07/18 06:32:31;;;;;;;11.28;3.70;;;19.70;99.90;;;;;;1895091;74;21169;-69
2021/07/18 06:34:58;;;;;;;11.40;3.52;;;19.80;99.90;;;;;;1892687;75;21071;-68
2021/07/18 06:37:26;;;;;;;13.50;3.65;;;19.80;99.90;;;;;;1893890;75;21066;-69
2021/07/18 06:39:53;;;;;;;11.30;3.72;;;19.90;99.90;;;;;;1863541;76;21568;-69
2021/07/18 06:42:21;;;;;;;14.63;3.42;;;19.90;99.90;;;;;;1868336;76;21079;-68
2021/07/18 06:44:48;;;;;;;13.95;3.60;;;20.00;99.90;;;;;;1894157;75;21114;-68
2021/07/18 06:47:16;;;;;;;10.28;3.10;;;19.90;99.90;;;;;;1891905;75;21593;-69
2021/07/18 06:49:43;;;;;;;13.88;3.87;;;20.00;99.90;;;;;;1869214;75;21055;-70
2021/07/18 06:52:11;;;;;;;15.95;4.05;;;19.90;99.90;;;;;;1880375;76;21083;-69
2021/07/18 06:54:38;;;;;;;15.18;3.77;;;20.00;99.90;;;;;;1877711;74;21114;-68
2021/07/18 06:57:06;;;;;;;11.90;3.77;;;20.10;99.90;;;;;;1863803;74;21079;-69
2021/07/18 06:59:33;;;;;;;13.65;4.00;;;20.10;99.90;;;;;;1897416;74;21549;-68
2021/07/18 07:02:01;;;;;;;9.20;3.80;;;20.10;99.90;;;;;;1894493;75;21079;-69
2021/07/18 07:04:28;;;;;;;10.25;3.85;;;20.10;99.90;;;;;;1894526;75;21192;-68
2021/07/18 07:06:56;;;;;;;14.13;3.50;;;20.20;99.90;;;;;;1894591;75;22257;-70
2021/07/18 07:09:23;;;;;;;11.53;3.33;;;20.20;99.90;;;;;;1893498;75;21075;-69
2021/07/18 07:11:51;;;;;;;12.53;3.80;;;20.20;99.90;;;;;;1894469;76;21207;-69
2021/07/18 07:14:18;;;;;;;11.95;3.55;;;20.40;99.90;;;;;;1894603;75;21109;-70
2021/07/18 07:16:46;;;;;;;14.07;4.00;;;20.40;99.90;;;;;;1889326;76;21082;-70
2021/07/18 07:19:13;;;;;;;7.80;3.12;;;20.50;99.90;;;;;;1893286;75;21024;-68
2021/07/18 07:21:41;;;;;;;11.18;3.37;;;20.50;99.90;;;;;;1894532;74;21220;-68
2021/07/18 07:24:08;;;;;;;15.35;3.60;;;20.50;99.90;;;;;;1894357;75;21191;-69
2021/07/18 07:26:37;;;;;;;13.35;3.42;;;20.60;99.90;;;;;;1909377;74;21200;-69
2021/07/18 07:29:04;;;;;;;12.80;2.98;;;20.60;99.90;;;;;;1892002;74;21180;-69
2021/07/18 07:31:32;;;;;;;13.03;3.72;;;20.60;99.90;;;;;;1892473;74;21202;-70
2021/07/18 07:33:59;;;;;;;12.30;3.40;;;20.70;99.90;;;;;;1904424;74;21171;-69
2021/07/18 07:36:27;;;;;;;11.88;3.75;;;20.70;99.90;;;;;;1910882;74;21096;-70
2021/07/18 07:38:55;;;;;;;11.18;3.00;;;20.70;99.90;;;;;;1892773;74;21112;-70
2021/07/18 07:41:23;;;;;;;11.43;3.00;;;20.80;99.90;;;;;;1894552;74;21133;-70
2021/07/18 07:43:56;;;;;;;11.63;3.25;;;20.90;99.90;;;;;;1893041;74;21139;-69
2021/07/18 07:46:20;;;;;;;8.23;2.98;;;20.90;99.90;;;;;;1900669;74;21002;-70
2021/07/18 07:48:47;;;;;;;10.65;3.00;;;20.90;99.90;;;;;;1912512;74;21495;-69
2021/07/18 07:51:15;;;;;;;7.50;3.05;;;21.00;99.90;;;;;;1887557;74;21660;-69
2021/07/18 07:53:42;;;;;;;10.95;3.08;;;21.00;99.90;;;;;;1896967;74;21180;-69
2021/07/18 07:56:10;;;;;;;10.63;2.90;;;21.00;99.90;;;;;;1878128;74;21110;-71
2021/07/18 07:58:38;;;;;;;10.98;3.00;;;21.10;99.90;;;;;;1902885;74;21544;-69
2021/07/18 08:01:05;;;;;;;8.63;2.52;;;21.10;99.90;;;;;;1895025;74;21733;-69
2021/07/18 08:03:33;;;;;;;10.98;3.17;;;21.10;99.90;;;;;;1892633;75;21105;-68
2021/07/18 08:06:00;;;;;;;9.65;3.00;;;21.20;99.90;;;;;;1891661;76;21117;-69
2021/07/18 08:08:28;;;;;;;9.80;2.83;;;21.20;99.90;;;;;;1893788;74;21172;-70
2021/07/18 08:10:57;;;;;;;10.43;2.92;;;21.20;99.90;;;;;;1894842;74;21144;-69
2021/07/18 08:13:25;;;;;;;11.12;3.00;;;21.20;99.90;;;;;;1907722;74;21178;-69
2021/07/18 08:15:52;;;;;;;9.35;2.77;;;21.30;99.90;;;;;;1900001;74;22139;-70
2021/07/18 08:18:20;;;;;;;10.55;2.85;;;21.40;99.90;;;;;;1890653;74;21280;-69
2021/07/18 08:20:48;;;;;;;11.18;2.98;;;21.50;99.90;;;;;;1899934;74;21172;-68
2021/07/18 08:23:15;;;;;;;9.33;2.83;;;21.50;99.90;;;;;;1894715;75;21103;-69
2021/07/18 08:25:43;;;;;;;7.70;2.55;;;21.60;99.90;;;;;;1893965;75;21103;-70
2021/07/18 08:28:10;;;;;;;8.68;2.60;;;21.50;99.90;;;;;;1889336;74;21020;-68
2021/07/18 08:30:39;;;;;;;11.93;3.20;;;21.50;99.90;;;;;;1896422;74;21524;-68
2021/07/18 08:33:07;;;;;;;10.25;2.60;;;21.60;99.90;;;;;;1893246;76;21105;-67
2021/07/18 08:35:34;;;;;;;9.70;3.17;;;21.70;99.90;;;;;;1894075;75;21079;-68
2021/07/18 08:38:02;;;;;;;11.65;3.12;;;21.80;99.90;;;;;;1893793;74;21152;-68
2021/07/18 08:40:32;;;;;;;7.40;2.50;;;21.90;99.90;;;;;;1890609;74;22141;-68
2021/07/18 08:43:01;;;;;;;10.53;3.02;;;22.00;99.90;;;;;;1883119;74;21118;-66
2021/07/18 08:45:29;;;;;;;17.15;3.33;;;22.00;99.90;;;;;;1893469;74;21180;-68
2021/07/18 08:47:56;;;;;;;8.23;2.40;;;21.90;99.90;;;;;;1885011;74;21094;-68
2021/07/18 08:50:24;;;;;;;9.18;2.62;;;21.90;99.90;;;;;;1875650;75;21087;-69
2021/07/18 08:52:59;;;;;;;8.60;2.85;;;21.90;99.90;;;;;;1889155;74;21085;-71
2021/07/18 08:55:25;;;;;;;8.70;2.98;;;21.90;99.90;;;;;;1862872;76;21153;-70
2021/07/18 08:57:53;;;;;;;12.33;2.80;;;21.80;99.90;;;;;;1865508;74;21200;-68
2021/07/18 09:00:22;;;;;;;10.03;2.52;;;21.80;99.90;;;;;;1895124;74;22071;-70
2021/07/18 09:02:49;;;;;;;13.25;2.80;;;22.00;99.90;;;;;;1892778;74;21145;-69
2021/07/18 09:05:18;;;;;;;8.98;2.35;;;22.00;99.90;;;;;;1883979;74;21166;-71
2021/07/18 09:07:53;;;;;;;9.95;2.62;;;22.00;99.90;;;;;;1895253;74;21305;-72
2021/07/18 09:10:27;;;;;;;9.90;2.87;;;22.00;99.90;;;;;;1898438;74;21120;-71
2021/07/18 09:13:12;;;;;;;8.15;2.58;;;22.20;99.90;;;;;;1907809;74;21089;-71
2021/07/18 09:15:42;;;;;;;10.85;2.52;;;22.30;99.90;;;;;;1896401;74;21147;-69
2021/07/18 09:18:12;;;;;;;10.05;2.62;;;22.30;99.90;;;;;;1892700;74;21045;-69
2021/07/18 09:20:42;;;;;;;8.38;2.95;;;22.40;99.90;;;;;;1892675;74;21179;-69
2021/07/18 09:23:16;;;;;;;10.40;2.50;;;22.50;99.90;;;;;;1895875;74;21101;-71
2021/07/18 09:25:44;;;;;;;9.90;2.30;;;22.70;99.90;;;;;;1890552;74;21109;-72
2021/07/18 09:28:13;;;;;;;13.13;2.67;;;22.90;99.90;;;;;;1876540;74;21104;-72
2021/07/18 09:30:41;;;;;;;7.62;2.60;;;22.90;99.90;;;;;;1876994;75;21661;-72
2021/07/18 09:33:26;;;;;;;8.25;2.62;;;22.90;99.90;;;;;;1903500;74;21073;-71
2021/07/18 09:36:14;;;;;;;10.58;2.45;;;23.00;99.90;;;;;;1894608;76;21509;-71
2021/07/18 09:38:42;;;;;;;8.05;2.55;;;23.00;99.90;;;;;;1894419;75;21207;-71
2021/07/18 09:41:11;;;;;;;10.25;2.58;;;23.10;99.90;;;;;;1896956;74;21115;-72
2021/07/18 09:43:39;;;;;;;8.80;2.62;;;23.20;99.90;;;;;;1900630;74;21078;-71
2021/07/18 09:46:08;;;;;;;9.43;3.42;;;23.30;99.90;;;;;;1907504;74;21187;-72
2021/07/18 09:48:44;;;;;;;10.72;3.25;;;23.40;99.90;;;;;;1894519;74;22098;-72
2021/07/18 09:51:14;;;;;;;13.03;4.83;;;23.40;99.90;;;;;;1893066;75;21299;-72
2021/07/18 09:53:43;;;;;;;7.53;3.20;;;23.30;99.90;;;;;;1883773;76;21394;-72
2021/07/18 09:56:13;;;;;;;9.10;2.80;;;23.30;99.90;;;;;;1893536;74;21570;-73
2021/07/18 09:58:52;;;;;;;11.53;2.72;;;23.30;99.90;;;;;;1890858;74;21118;-72
2021/07/18 10:01:19;;;;;;;9.00;2.67;;;23.40;99.90;;;;;;1862529;77;21645;-72
2021/07/18 10:03:50;;;;;;;6.70;2.37;;;23.40;99.90;;;;;;1868470;76;21108;-72
2021/07/18 10:06:22;;;;;;;7.50;2.40;;;23.50;99.90;;;;;;1883103;76;21631;-73
2021/07/18 10:08:55;;;;;;;7.67;2.47;;;23.70;99.90;;;;;;1886174;74;21120;-73
2021/07/18 10:11:24;;;;;;;7.85;2.37;;;23.90;99.90;;;;;;1896847;75;21949;-72
2021/07/18 10:13:54;;;;;;;8.40;2.83;;;23.70;99.90;;;;;;1878851;75;21075;-72
2021/07/18 10:16:24;;;;;;;7.78;1.80;;;23.70;99.90;;;;;;1882156;76;21650;-73
2021/07/18 10:18:54;;;;;;;9.60;2.45;;;23.60;99.90;;;;;;1876846;75;22070;-72
2021/07/18 10:21:24;;;;;;;8.93;2.60;;;23.50;99.90;;;;;;1873992;75;21121;-73
2021/07/18 10:23:54;;;;;;;7.40;2.55;;;23.50;99.90;;;;;;1867965;74;21116;-72
2021/07/18 10:26:25;;;;;;;10.03;2.60;;;23.80;99.90;;;;;;1882205;75;21071;-72
2021/07/18 10:28:53;;;;;;;6.45;1.92;;;23.70;99.90;;;;;;1892777;75;21077;-72
2021/07/18 10:31:35;;;;;;;11.00;2.27;;;23.80;99.90;;;;;;1888257;75;21428;-72
2021/07/18 10:34:05;;;;;;;7.45;2.37;;;23.80;99.90;;;;;;1885224;76;22237;-72
2021/07/18 10:36:35;;;;;;;8.70;2.27;;;23.70;99.90;;;;;;1881302;76;21142;-72
2021/07/18 10:39:22;;;;;;;12.37;2.65;;;23.80;99.90;;;;;;1888862;75;21171;-72
2021/07/18 10:41:49;;;;;;;12.95;2.77;;;24.00;99.90;;;;;;1863247;76;21410;-72
2021/07/18 10:44:18;;;;;;;11.05;2.33;;;24.10;99.90;;;;;;1890006;74;21658;-73
2021/07/18 10:46:49;;;;;;;10.32;2.50;;;24.10;99.90;;;;;;1884904;75;21204;-73
2021/07/18 10:49:17;;;;;;;9.75;2.65;;;24.00;99.90;;;;;;1914196;74;21096;-70
2021/07/18 10:51:52;;;;;;;11.75;2.50;;;24.20;99.90;;;;;;1887175;74;21087;-72
2021/07/18 10:54:21;;;;;;;8.78;2.95;;;24.30;99.90;;;;;;1880025;75;21178;-72
2021/07/18 10:56:51;;;;;;;8.63;3.45;;;24.30;99.90;;;;;;1887553;75;21572;-70
2021/07/18 10:59:43;;;;;;;9.75;2.80;;;24.50;99.90;;;;;;1890756;74;21104;-71
2021/07/18 11:02:16;;;;;;;8.60;2.92;;;24.50;99.90;;;;;;1888241;74;21183;-71
2021/07/18 11:04:51;;;;;;;17.73;3.02;;;24.40;99.90;;;;;;1892451;76;21054;-73
2021/07/18 11:07:24;;;;;;;8.55;2.70;;;24.20;99.90;;;;;;1893134;74;21066;-72
2021/07/18 11:09:58;;;;;;;7.80;2.08;;;24.00;99.90;;;;;;1890861;75;21192;-73
2021/07/18 11:12:35;;;;;;;9.63;2.75;;;24.00;99.90;;;;;;1883721;75;21231;-73
2021/07/18 11:15:20;;;;;;;11.38;2.47;;;24.10;99.90;;;;;;1886036;75;21686;-73
2021/07/18 11:18:03;;;;;;;10.82;3.00;;;24.30;99.90;;;;;;1889731;74;21588;-74
2021/07/18 11:20:53;;;;;;;9.68;3.05;;;24.10;99.90;;;;;;1885634;74;21155;-74
2021/07/18 11:23:22;;;;;;;7.75;2.50;;;24.10;99.90;;;;;;1892133;75;21121;-73
2021/07/18 11:25:59;;;;;;;8.20;2.80;;;24.30;99.90;;;;;;1880446;75;21247;-74
2021/07/18 11:28:35;;;;;;;8.68;2.30;;;24.50;99.90;;;;;;1878003;74;21141;-76
2021/07/18 11:31:15;;;;;;;11.63;3.20;;;24.50;99.90;;;;;;1891043;75;21421;-77
2021/07/18 11:34:01;;;;;;;9.75;3.33;;;24.60;99.90;;;;;;1887145;74;21141;-75
2021/07/18 11:36:37;;;;;;;16.62;3.50;;;24.70;99.90;;;;;;1889811;74;21172;-73
2021/07/18 11:39:19;;;;;;;14.18;3.60;;;24.80;99.90;;;;;;1875787;74;21006;-72
2021/07/18 11:41:47;;;;;;;;;;;24.80;99.90;;;;;;1894238;74;21272;-72
2021/07/18 11:44:16;;;;;;;9.70;2.90;;;25.00;99.90;;;;;;1892674;74;20178;-73
2021/07/18 11:46:46;;;;;;;11.25;2.62;;;24.90;99.90;;;;;;1894288;75;21437;-73
2021/07/18 11:49:16;;;;;;;10.63;3.33;;;24.90;99.90;;;;;;1884738;75;21113;-74
2021/07/18 11:51:46;;;;;;;7.75;2.85;;;25.00;99.90;;;;;;1891771;74;21062;-74
2021/07/18 11:54:15;;;;;;;6.08;2.22;;;24.80;99.90;;;;;;1893004;75;21619;-72
2021/07/18 11:56:45;;;;;;;10.45;2.72;;;24.80;99.90;;;;;;1891961;74;21628;-73
2021/07/18 11:59:18;;;;;;;5.08;1.90;;;24.80;99.90;;;;;;1891060;75;21100;-73
2021/07/18 12:01:48;;;;;;;4.03;1.75;;;24.80;99.90;;;;;;1887448;74;21192;-73
2021/07/18 12:04:24;;;;;;;6.03;1.80;;;24.80;99.90;;;;;;1880461;74;21116;-75
2021/07/18 12:07:00;;;;;;;9.40;1.98;;;24.90;99.90;;;;;;1886993;74;21105;-74
2021/07/18 12:09:37;;;;;;;6.17;1.67;;;24.90;99.90;;;;;;1903230;74;21134;-73
2021/07/18 12:12:02;;;;;;;9.00;1.80;;;24.80;99.90;;;;;;1862259;77;21751;-73
2021/07/18 12:14:33;;;;;;;8.53;2.30;;;24.70;99.90;;;;;;1876492;74;21499;-73
2021/07/18 12:16:59;;;;;;;7.55;2.40;;;24.80;99.90;;;;;;1892271;75;21148;-75
2021/07/18 12:19:29;;;;;;;6.20;1.95;;;24.90;99.90;;;;;;1893465;74;21165;-76
2021/07/18 12:21:58;;;;;;;11.20;2.37;;;24.90;99.90;;;;;;1908642;74;21212;-75
2021/07/18 12:24:31;;;;;;;8.48;2.40;;;24.90;99.90;;;;;;1886552;74;21108;-74
2021/07/18 12:27:02;;;;;;;9.65;2.22;;;25.00;99.90;;;;;;1880091;76;21068;-76
2021/07/18 12:29:35;;;;;;;10.20;2.33;;;25.00;99.90;;;;;;1881899;75;21187;-76
2021/07/18 12:32:03;;;;;;;6.35;2.17;;;25.30;99.90;;;;;;1884462;74;21144;-71
2021/07/18 12:34:34;;;;;;;9.08;2.30;;;25.40;99.90;;;;;;1892853;75;21114;-71
2021/07/18 12:37:07;;;;;;;5.10;1.80;;;25.40;99.90;;;;;;1892353;74;21174;-76
2021/07/18 12:39:52;;;;;;;4.87;1.60;;;25.50;99.90;;;;;;1882217;74;21188;-76
2021/07/18 12:42:25;;;;;;;5.87;1.90;;;25.50;99.90;;;;;;1884541;74;21211;-76
2021/07/18 12:45:05;;;;;;;4.05;1.50;;;25.70;99.90;;;;;;1898270;74;21112;-77
2021/07/18 12:47:37;;;;;;;7.55;2.12;;;25.70;99.90;;;;;;1857399;75;22101;-77
2021/07/18 12:50:17;;;;;;;5.45;1.82;;;25.80;99.90;;;;;;1888165;74;21117;-76